Time;durP1;ratioP1;P1;durP2;ratioP2;P2;SDS_P1;SDS_P2;PMS_P1;PMS_P2;Temp;Humidity;BMP_temperature;BMP_pressure;BME280_temperature;BME280_humidity;BME280_pressure;Samples;Min_cycle;Max_cycle;Signal;HPM_P1;HPM_P2
2023/08/09 04:22:33;;;;;;;3.35;1.90;;;;;;;17.61;82.09;100068.75;5089539;28;20336;-67
2023/08/09 04:24:59;;;;;;;3.25;1.70;;;;;;;17.68;81.26;100079.47;5089489;28;20044;-66
2023/08/09 04:27:24;;;;;;;2.47;1.73;;;;;;;17.70;81.30;100080.88;5089374;28;20059;-66
2023/08/09 04:29:50;;;;;;;3.97;1.98;;;;;;;17.78;80.50;100082.47;5089012;28;20449;-67
2023/08/09 04:32:16;;;;;;;3.78;1.70;;;;;;;17.80;80.81;100078.53;5089311;28;20119;-67
2023/08/09 04:34:41;;;;;;;2.40;1.60;;;;;;;17.85;80.31;100072.44;5089203;28;20128;-67
2023/08/09 04:37:07;;;;;;;6.05;2.45;;;;;;;17.87;80.28;100081.16;5089156;28;20044;-65
2023/08/09 04:39:33;;;;;;;4.47;2.10;;;;;;;17.86;80.41;100084.84;5088900;28;20040;-66
2023/08/09 04:41:58;;;;;;;3.17;2.13;;;;;;;17.86;80.70;100082.97;5089036;28;20036;-66
2023/08/09 04:44:25;;;;;;;3.83;2.05;;;;;;;17.87;80.38;100079.28;5089069;28;20094;-66
2023/08/09 04:46:50;;;;;;;3.05;1.80;;;;;;;17.89;80.08;100079.03;5088955;28;20037;-66
2023/08/09 04:49:15;;;;;;;4.43;2.17;;;;;;;17.89;80.36;100087.13;5088760;28;20499;-66
2023/08/09 04:51:41;;;;;;;4.00;2.03;;;;;;;17.93;80.05;100074.00;5088937;28;20511;-66
2023/08/09 04:54:06;;;;;;;4.22;2.08;;;;;;;17.93;80.01;100071.31;5085568;28;20404;-66
2023/08/09 04:56:32;;;;;;;3.67;2.50;;;;;;;17.96;79.74;100069.00;5069808;28;20047;-66
2023/08/09 04:58:57;;;;;;;4.40;1.80;;;;;;;17.96;80.39;100073.56;5068237;28;20045;-66
2023/08/09 05:01:22;;;;;;;4.18;1.80;;;;;;;17.96;80.97;100070.88;5068465;28;20044;-66
2023/08/09 05:03:48;;;;;;;2.53;1.73;;;;;;;17.96;80.80;100074.38;5068564;28;20036;-66
2023/08/09 05:06:13;;;;;;;6.47;1.80;;;;;;;17.95;80.69;100075.44;5068291;28;20040;-66
2023/08/09 05:08:38;;;;;;;5.75;1.85;;;;;;;17.96;79.97;100082.47;5078806;28;20085;-66
2023/08/09 05:11:04;;;;;;;2.75;1.50;;;;;;;17.98;80.06;100071.47;5088505;28;20036;-66
2023/08/09 05:13:29;;;;;;;3.60;2.03;;;;;;;18.01;79.83;100079.94;5088481;28;20044;-65
2023/08/09 05:15:55;;;;;;;3.67;2.03;;;;;;;18.02;79.75;100073.50;5088325;28;20043;-66
2023/08/09 05:18:20;;;;;;;3.35;1.50;;;;;;;18.03;80.31;100072.44;5088130;28;20127;-66
2023/08/09 05:20:45;;;;;;;3.58;1.83;;;;;;;18.07;80.01;100070.13;5088252;28;20041;-66
2023/08/09 05:23:11;;;;;;;3.88;1.80;;;;;;;18.12;79.40;100081.84;5088331;28;20036;-67
2023/08/09 05:25:36;;;;;;;4.18;1.65;;;;;;;18.13;79.42;100082.69;5088368;28;20577;-67
2023/08/09 05:28:02;;;;;;;2.35;1.60;;;;;;;18.18;79.09;100082.81;5088095;28;20051;-66
2023/08/09 05:30:27;;;;;;;3.28;1.65;;;;;;;18.20;79.36;100091.53;5088213;28;20032;-66
2023/08/09 05:32:53;;;;;;;4.47;2.20;;;;;;;18.23;79.22;100084.84;5080639;28;20131;-65
2023/08/09 05:35:18;;;;;;;2.65;1.88;;;;;;;18.25;79.34;100097.03;5074608;28;20041;-66
2023/08/09 05:37:43;;;;;;;3.63;2.03;;;;;;;18.25;80.27;100086.25;5074753;28;20041;-66
2023/08/09 05:40:12;;;;;;;2.55;1.60;;;;;;;18.29;79.43;100090.16;5074182;28;20418;-66
2023/08/09 05:42:38;;;;;;;7.40;2.35;;;;;;;18.35;79.71;100099.19;5074541;28;20404;-66
2023/08/09 05:45:04;;;;;;;3.60;1.85;;;;;;;18.32;80.73;100094.25;5074546;28;20043;-66
2023/08/09 05:47:29;;;;;;;4.72;2.10;;;;;;;18.34;80.27;100100.25;5074416;28;20037;-66
2023/08/09 05:49:54;;;;;;;3.17;1.70;;;;;;;18.36;80.06;100101.66;5074412;28;20059;-66
2023/08/09 05:52:20;;;;;;;2.72;1.70;;;;;;;18.33;79.97;100114.78;5074325;28;20036;-66
2023/08/09 05:54:46;;;;;;;4.20;1.80;;;;;;;18.34;80.92;100113.75;5074322;28;20032;-66
2023/08/09 05:57:12;;;;;;;3.22;1.60;;;;;;;18.31;80.41;100108.78;5074269;28;20108;-66
2023/08/09 05:59:39;;;;;;;5.07;1.85;;;;;;;18.31;80.90;100115.00;5073889;28;20041;-66
2023/08/09 06:02:06;;;;;;;3.50;1.50;;;;;;;18.33;81.02;100109.41;5074152;28;20032;-66
2023/08/09 06:04:32;;;;;;;2.13;1.40;;;;;;;18.36;81.46;100117.84;5074203;28;20467;-66
2023/08/09 06:06:58;;;;;;;3.88;1.90;;;;;;;18.40;81.49;100113.66;5074113;28;20414;-66
2023/08/09 06:09:23;;;;;;;3.90;2.35;;;;;;;18.43;82.07;100118.56;5073770;28;20028;-66
2023/08/09 06:11:49;;;;;;;3.35;1.83;;;;;;;18.45;81.43;100115.66;5073964;28;20041;-65
2023/08/09 06:14:14;;;;;;;3.65;2.00;;;;;;;18.50;81.27;100121.19;5074033;28;20064;-66
2023/08/09 06:16:43;;;;;;;3.53;1.65;;;;;;;18.49;82.10;100124.94;5073954;28;20075;-65
2023/08/09 06:19:09;;;;;;;2.60;1.55;;;;;;;18.49;81.65;100132.22;5073518;28;20490;-66
2023/08/09 06:21:34;;;;;;;3.00;1.60;;;;;;;18.47;82.40;100143.22;5073641;28;20035;-65
2023/08/09 06:24:00;;;;;;;3.28;1.88;;;;;;;18.46;81.61;100138.91;5073614;28;20043;-65
2023/08/09 06:26:25;;;;;;;4.70;2.17;;;;;;;18.35;82.96;100137.78;5073601;28;20082;-66
2023/08/09 06:28:51;;;;;;;3.30;2.00;;;;;;;18.34;83.02;100143.41;5073331;28;20052;-66
2023/08/09 06:31:17;;;;;;;2.35;1.60;;;;;;;18.33;83.32;100144.47;5073534;28;20029;-66
2023/08/09 06:33:42;;;;;;;3.60;1.90;;;;;;;18.32;83.52;100148.19;5073559;28;20040;-65
2023/08/09 06:36:11;;;;;;;4.80;2.63;;;;;;;18.25;84.51;100150.94;5073432;28;20043;-66
2023/08/09 06:38:36;;;;;;;4.72;3.35;;;;;;;18.21;85.95;100154.34;5072532;28;20437;-62
2023/08/09 06:41:02;;;;;;;3.83;2.45;;;;;;;18.23;84.58;100144.16;5061843;28;20119;-62
2023/08/09 06:43:28;;;;;;;5.53;3.17;;;;;;;18.23;85.76;100138.75;5063012;28;20091;-61
2023/08/09 06:45:54;;;;;;;5.13;2.20;;;;;;;18.26;85.62;100143.72;5062950;28;20107;-62
2023/08/09 06:48:19;;;;;;;3.30;2.05;;;;;;;18.27;85.79;100139.97;5062408;28;20119;-61
2023/08/09 06:50:44;;;;;;;3.95;1.50;;;;;;;18.30;85.27;100151.09;5062307;28;20044;-61
2023/08/09 06:53:10;;;;;;;3.10;1.67;;;;;;;18.34;85.94;100146.09;5063898;28;20127;-62
2023/08/09 06:55:35;;;;;;;4.00;1.75;;;;;;;18.40;85.39;100161.38;5062082;28;20036;-60
2023/08/09 06:58:01;;;;;;;2.95;1.83;;;;;;;18.43;86.49;100160.91;5062356;28;20086;-61
2023/08/09 07:00:26;;;;;;;2.78;1.80;;;;;;;18.47;85.93;100162.13;5063410;28;20049;-60
2023/08/09 07:02:52;;;;;;;2.63;1.50;;;;;;;18.49;85.88;100160.00;5061506;28;20067;-61
2023/08/09 07:05:21;;;;;;;1.92;1.50;;;;;;;18.45;86.11;100164.19;5061805;28;20407;-62
2023/08/09 07:07:51;;;;;;;4.25;1.60;;;;;;;18.45;85.68;100174.97;5063157;28;20411;-62
2023/08/09 07:10:17;;;;;;;3.70;1.63;;;;;;;18.46;85.84;100167.75;5061565;28;20037;-60
2023/08/09 07:12:43;;;;;;;2.70;1.83;;;;;;;18.44;86.30;100167.94;5062055;28;20024;-61
2023/08/09 07:15:09;;;;;;;2.80;1.45;;;;;;;18.41;86.64;100173.81;5063226;28;20067;-61
2023/08/09 07:17:35;;;;;;;5.18;1.75;;;;;;;18.41;86.92;100179.19;5061531;28;20032;-62
2023/08/09 07:20:02;;;;;;;4.00;1.55;;;;;;;18.36;87.01;100179.03;5061987;28;20028;-60
2023/08/09 07:22:28;;;;;;;3.78;2.00;;;;;;;18.35;87.88;100178.22;5055069;28;20098;-61
2023/08/09 07:24:53;;;;;;;5.32;2.08;;;;;;;18.32;87.81;100183.22;5052526;28;20073;-61
2023/08/09 07:27:19;;;;;;;2.38;1.88;;;;;;;18.29;87.58;100181.00;5052427;28;20051;-61
2023/08/09 07:29:44;;;;;;;3.42;1.80;;;;;;;18.31;88.02;100173.50;5052269;28;20124;-62
2023/08/09 07:32:09;;;;;;;3.78;2.00;;;;;;;18.37;87.97;100173.41;5052318;28;20049;-61
2023/08/09 07:34:35;;;;;;;5.65;1.65;;;;;;;18.44;87.61;100179.53;5052458;28;20114;-61
2023/08/09 07:37:00;;;;;;;3.70;1.70;;;;;;;18.46;87.10;100181.22;5052336;28;20044;-62
2023/08/09 07:39:25;;;;;;;3.88;1.73;;;;;;;18.45;86.92;100174.97;5051560;28;20802;-62
2023/08/09 07:41:51;;;;;;;2.78;1.42;;;;;;;18.46;87.79;100181.22;5052311;28;20072;-61
2023/08/09 07:44:16;;;;;;;3.35;1.60;;;;;;;18.45;87.87;100183.06;5052292;28;20055;-59
2023/08/09 07:46:42;;;;;;;4.10;1.65;;;;;;;18.46;88.19;100184.75;5052268;28;20226;-61
2023/08/09 07:49:07;;;;;;;4.35;1.92;;;;;;;18.44;88.44;100189.50;5051886;28;20095;-61
2023/08/09 07:51:33;;;;;;;4.82;2.03;;;;;;;18.39;87.88;100192.91;5052180;28;20041;-61
2023/08/09 07:53:58;;;;;;;3.28;2.13;;;;;;;18.39;87.99;100195.59;5052408;28;20381;-61
2023/08/09 07:56:24;;;;;;;4.88;1.83;;;;;;;18.40;89.17;100204.53;5052055;28;20135;-61
2023/08/09 07:58:50;;;;;;;3.58;1.65;;;;;;;18.40;88.91;100210.72;5051943;28;20115;-61
2023/08/09 08:01:15;;;;;;;5.60;1.90;;;;;;;18.38;90.05;100207.41;5052139;28;20467;-60
2023/08/09 08:03:41;;;;;;;3.33;2.05;;;;;;;18.38;90.02;100207.41;5052011;28;20037;-61
2023/08/09 08:06:06;;;;;;;5.10;1.98;;;;;;;18.40;88.89;100216.13;5051875;28;20059;-62
2023/08/09 08:08:32;;;;;;;4.80;2.45;;;;;;;18.44;88.98;100213.78;5050297;28;20033;-61
2023/08/09 08:10:57;;;;;;;3.72;1.90;;;;;;;18.49;88.71;100216.63;5051854;28;20040;-62
2023/08/09 08:13:23;;;;;;;2.50;1.70;;;;;;;18.55;89.69;100221.13;5051810;28;20036;-62
2023/08/09 08:15:50;;;;;;;1.73;1.35;;;;;;;18.64;88.78;100224.34;5051829;28;20086;-62
2023/08/09 08:18:15;;;;;;;4.10;1.85;;;;;;;18.71;89.75;100233.19;5051589;28;20131;-61
2023/08/09 08:20:41;;;;;;;2.85;1.70;;;;;;;18.77;87.91;100231.47;5051758;28;20115;-62
2023/08/09 08:23:06;;;;;;;3.50;1.70;;;;;;;18.82;86.74;100234.31;5051745;28;20087;-62
2023/08/09 08:25:32;;;;;;;2.70;1.67;;;;;;;18.90;87.34;100242.09;5051607;28;20045;-59
2023/08/09 08:27:57;;;;;;;2.67;1.60;;;;;;;18.95;87.31;100234.16;5051724;28;20045;-61
2023/08/09 08:30:23;;;;;;;2.22;1.40;;;;;;;19.03;86.52;100236.50;5051443;28;20033;-62
2023/08/09 08:32:51;;;;;;;1.88;1.45;;;;;;;19.07;87.03;100255.78;5051746;28;20476;-61
2023/08/09 08:35:20;;;;;;;4.05;1.88;;;;;;;19.14;86.38;100248.41;5051509;28;20033;-61
2023/08/09 08:37:48;;;;;;;3.03;1.83;;;;;;;19.16;86.51;100257.09;5051642;28;20028;-62
2023/08/09 08:40:19;;;;;;;3.88;1.83;;;;;;;19.17;86.76;100256.03;5051535;28;20037;-60
2023/08/09 08:42:45;;;;;;;3.42;1.90;;;;;;;19.21;87.54;100252.66;5051721;28;20037;-61
2023/08/09 08:45:11;;;;;;;3.27;1.50;;;;;;;19.23;86.15;100253.28;5051570;28;20530;-60
2023/08/09 08:47:41;;;;;;;4.65;1.60;;;;;;;19.28;87.03;100257.16;5051571;28;20041;-66
2023/08/09 08:50:11;;;;;;;3.13;1.80;;;;;;;19.36;85.49;100259.53;5051223;28;20059;-67
2023/08/09 08:52:40;;;;;;;2.88;1.50;;;;;;;19.34;87.49;100259.75;5051369;28;20502;-67
2023/08/09 08:55:09;;;;;;;4.78;1.92;;;;;;;19.30;85.75;100260.44;5051410;28;20037;-67
2023/08/09 08:57:35;;;;;;;2.25;1.50;;;;;;;19.25;86.37;100263.84;5051409;28;20124;-66
2023/08/09 09:00:08;;;;;;;2.13;1.42;;;;;;;19.27;87.07;100272.53;5051240;28;20057;-66
2023/08/09 09:02:38;;;;;;;2.45;1.70;;;;;;;19.24;86.00;100273.00;5051457;28;20404;-66
2023/08/09 09:05:06;;;;;;;2.58;1.40;;;;;;;19.19;86.95;100262.88;5051792;28;20095;-66
2023/08/09 09:07:31;;;;;;;3.47;1.40;;;;;;;19.19;86.86;100262.88;5052123;28;20041;-67
2023/08/09 09:10:03;;;;;;;2.47;1.50;;;;;;;19.21;87.11;100273.44;5054882;28;20062;-66
2023/08/09 09:12:29;;;;;;;3.70;1.45;;;;;;;19.19;88.49;100273.69;5053726;28;20047;-66
2023/08/09 09:14:54;;;;;;;3.17;1.65;;;;;;;19.21;87.02;100276.97;5055148;28;20048;-66
2023/08/09 09:17:20;;;;;;;2.15;1.60;;;;;;;19.19;87.25;100272.88;5054833;28;20112;-65
2023/08/09 09:19:46;;;;;;;3.40;1.60;;;;;;;19.22;86.85;100267.00;5054616;28;20117;-64
2023/08/09 09:22:34;;;;;;;2.38;1.80;;;;;;;19.24;86.70;100273.84;5054821;28;20102;-66
2023/08/09 09:24:59;;;;;;;3.00;1.63;;;;;;;19.25;87.05;100272.78;5054828;28;20044;-66
2023/08/09 09:27:32;;;;;;;3.85;1.55;;;;;;;19.26;88.32;100273.59;5060091;28;20103;-67
2023/08/09 09:30:05;;;;;;;2.38;1.60;;;;;;;19.34;86.91;100281.34;5064881;28;20135;-66
2023/08/09 09:32:34;;;;;;;3.58;1.90;;;;;;;19.42;86.30;100278.31;5064333;28;20408;-66
2023/08/09 09:34:59;;;;;;;4.72;1.70;;;;;;;19.44;86.46;100280.81;5063391;28;20068;-66
2023/08/09 09:37:26;;;;;;;6.18;3.65;;;;;;;19.38;86.27;100271.75;5065195;28;20059;-66
2023/08/09 09:39:52;;;;;;;2.95;1.52;;;;;;;19.41;87.18;100281.25;5064348;28;20419;-66
2023/08/09 09:42:28;;;;;;;5.50;2.00;;;;;;;19.45;87.87;100287.88;5063311;28;20028;-66
2023/08/09 09:45:01;;;;;;;2.80;1.53;;;;;;;19.50;86.66;100283.44;5064343;28;20040;-66
2023/08/09 09:47:26;;;;;;;3.22;1.83;;;;;;;19.57;86.72;100290.59;5063430;28;20689;-65
2023/08/09 09:49:52;;;;;;;4.13;2.00;;;;;;;19.69;87.74;100284.22;5063990;28;20034;-65
2023/08/09 09:52:19;;;;;;;2.95;1.80;;;;;;;19.80;85.45;100293.38;5064869;28;20041;-65
2023/08/09 09:54:45;;;;;;;4.55;1.75;;;;;;;19.74;83.21;100287.00;5064990;28;20036;-66
2023/08/09 09:57:11;;;;;;;2.53;1.50;;;;;;;19.85;84.76;100288.09;5063884;28;20040;-66
2023/08/09 09:59:36;;;;;;;2.00;1.73;;;;;;;19.93;84.10;100281.53;5063007;28;20111;-66
2023/08/09 10:02:02;;;;;;;4.32;1.90;;;;;;;20.09;83.71;100280.03;5064471;28;20141;-66
2023/08/09 10:04:28;;;;;;;2.70;1.63;;;;;;;20.19;84.71;100272.94;5066126;28;20078;-66
2023/08/09 10:06:56;;;;;;;2.60;1.60;;;;;;;20.28;85.59;100270.72;5065286;28;20082;-66
2023/08/09 10:09:22;;;;;;;5.07;1.70;;;;;;;20.43;85.42;100272.94;5062322;28;20514;-66
2023/08/09 10:11:50;;;;;;;3.47;1.70;;;;;;;20.53;82.84;100275.88;5064222;28;20115;-65
2023/08/09 10:14:17;;;;;;;3.33;2.00;;;;;;;20.62;81.01;100277.19;5064098;28;20539;-66
2023/08/09 10:16:44;;;;;;;4.45;1.77;;;;;;;20.61;78.60;100275.53;5062471;28;20048;-66
2023/08/09 10:19:15;;;;;;;3.10;1.50;;;;;;;20.66;79.57;100280.22;5062292;28;20115;-66
2023/08/09 10:21:41;;;;;;;2.22;1.85;;;;;;;20.68;80.79;100276.22;5064468;28;20039;-66
2023/08/09 10:24:09;;;;;;;4.15;1.80;;;;;;;20.68;80.79;100270.81;5062662;28;20043;-66
2023/08/09 10:26:39;;;;;;;3.10;1.92;;;;;;;20.90;83.15;100264.75;5063094;28;20051;-66
2023/08/09 10:29:11;;;;;;;4.70;2.20;;;;;;;21.05;83.02;100270.44;5064276;28;20040;-66
2023/08/09 10:31:51;;;;;;;4.13;2.00;;;;;;;21.16;78.49;100272.28;5063840;28;20048;-67
2023/08/09 10:34:23;;;;;;;2.13;1.80;;;;;;;21.29;80.34;100271.22;5064396;28;20422;-64
2023/08/09 10:36:53;;;;;;;3.63;2.42;;;;;;;21.29;79.17;100258.47;5063135;28;20114;-65
2023/08/09 10:39:19;;;;;;;3.45;2.25;;;;;;;21.24;75.14;100274.59;5063801;28;20045;-66
2023/08/09 10:42:10;;;;;;;3.13;1.80;;;;;;;21.11;74.81;100267.59;5063619;28;20403;-66
2023/08/09 10:44:48;;;;;;;4.05;1.80;;;;;;;21.12;76.12;100274.66;5063998;28;20045;-66
2023/08/09 10:47:26;;;;;;;4.70;1.90;;;;;;;21.10;76.41;100270.56;5064870;28;20037;-66
2023/08/09 10:49:51;;;;;;;3.22;2.30;;;;;;;21.13;77.22;100264.66;5067175;28;20112;-66
2023/08/09 10:52:19;;;;;;;4.38;1.70;;;;;;;21.05;77.81;100260.44;5073104;28;20154;-66
2023/08/09 10:54:45;;;;;;;1.80;1.30;;;;;;;21.01;78.14;100270.13;5073118;28;20032;-66
2023/08/09 10:57:13;;;;;;;3.08;1.90;;;;;;;20.90;79.67;100264.75;5073074;28;20089;-66
2023/08/09 10:59:41;;;;;;;2.95;1.73;;;;;;;20.86;84.36;100267.09;5072783;28;20039;-67
2023/08/09 11:02:07;;;;;;;2.08;1.55;;;;;;;20.72;87.71;100271.97;5073056;28;20107;-66
2023/08/09 11:04:33;;;;;;;3.45;2.13;;;;;;;20.69;86.08;100268.94;5073005;28;20547;-66
2023/08/09 11:06:59;;;;;;;2.95;1.80;;;;;;;20.68;87.02;100276.22;5072867;28;20033;-66
2023/08/09 11:09:26;;;;;;;2.63;1.58;;;;;;;20.65;85.73;100273.16;5072591;28;20411;-66
2023/08/09 11:11:53;;;;;;;2.65;1.90;;;;;;;20.67;86.61;100271.03;5072779;28;20049;-65
2023/08/09 11:14:20;;;;;;;3.28;1.60;;;;;;;20.74;87.35;100274.47;5072880;28;20032;-66
2023/08/09 11:16:47;;;;;;;2.13;1.70;;;;;;;20.85;88.52;100273.56;5071394;28;20036;-65
2023/08/09 11:19:17;;;;;;;5.07;2.20;;;;;;;20.88;88.65;100269.59;5062044;28;20146;-65
2023/08/09 11:21:48;;;;;;;3.80;2.00;;;;;;;20.88;85.20;100269.59;5061073;28;20130;-65
2023/08/09 11:24:19;;;;;;;3.97;2.50;;;;;;;20.93;83.05;100264.25;5062108;28;20060;-65
2023/08/09 11:26:50;;;;;;;3.40;1.70;;;;;;;21.03;80.07;100265.28;5061050;28;20392;-65
2023/08/09 11:29:20;;;;;;;4.35;1.85;;;;;;;21.07;81.98;100269.16;5061737;28;20043;-65
2023/08/09 11:31:48;;;;;;;5.47;1.73;;;;;;;21.20;82.11;100272.66;5062367;28;20415;-67
2023/08/09 11:34:16;;;;;;;5.30;2.17;;;;;;;21.29;79.50;100272.03;5062245;28;20500;-66
2023/08/09 11:36:43;;;;;;;2.67;1.70;;;;;;;21.35;76.24;100271.06;5056729;28;20037;-67
2023/08/09 11:39:10;;;;;;;3.63;1.98;;;;;;;21.42;77.62;100272.78;5052022;28;20039;-64
2023/08/09 11:41:54;;;;;;;2.38;1.73;;;;;;;21.49;76.64;100273.47;5052320;28;20060;-68
2023/08/09 11:44:30;;;;;;;2.28;1.77;;;;;;;21.46;75.25;100282.09;5052397;28;20045;-68
2023/08/09 11:46:59;;;;;;;2.95;1.67;;;;;;;21.35;75.92;100276.47;5052162;28;20107;-68
2023/08/09 11:49:28;;;;;;;3.55;1.77;;;;;;;21.24;77.22;100280.03;5051987;28;20395;-67
2023/08/09 11:51:54;;;;;;;4.53;2.00;;;;;;;20.98;81.55;100283.31;5052060;28;20379;-67
2023/08/09 11:54:21;;;;;;;4.45;1.95;;;;;;;20.96;83.06;100288.16;5059353;28;20059;-67
2023/08/09 11:56:47;;;;;;;2.75;1.63;;;;;;;20.82;85.86;100285.72;5063022;28;20110;-66
2023/08/09 11:59:16;;;;;;;4.82;2.05;;;;;;;20.78;88.42;100287.25;5060611;28;20028;-67
2023/08/09 12:01:44;;;;;;;4.18;2.10;;;;;;;20.85;83.88;100271.69;5061272;28;20036;-66
2023/08/09 12:04:13;;;;;;;3.53;2.00;;;;;;;21.02;83.47;100276.34;5062498;28;20093;-67
2023/08/09 12:06:42;;;;;;;2.97;1.83;;;;;;;21.25;83.11;100281.66;5061597;28;20029;-68
2023/08/09 12:09:35;;;;;;;4.55;1.92;;;;;;;21.73;80.62;100283.09;5062193;28;20116;-67
2023/08/09 12:12:08;;;;;;;2.78;1.90;;;;;;;22.30;77.09;100288.38;5060495;28;20078;-67
2023/08/09 12:14:37;;;;;;;2.95;1.70;;;;;;;22.76;75.66;100297.13;5060674;28;20066;-66
2023/08/09 12:17:03;;;;;;;5.95;3.08;;;;;;;23.03;70.75;100297.22;5060922;28;20030;-67
2023/08/09 12:19:28;;;;;;;5.40;2.30;;;;;;;23.00;65.64;100298.53;5061143;28;20032;-67
2023/08/09 12:21:54;;;;;;;2.63;1.50;;;;;;;23.11;64.42;100304.09;5060435;28;20062;-67
2023/08/09 12:24:20;;;;;;;3.75;1.73;;;;;;;23.33;62.81;100296.72;5062283;28;20040;-67
2023/08/09 12:26:45;;;;;;;2.70;1.80;;;;;;;23.36;64.42;100309.81;5060900;28;20029;-68
2023/08/09 12:29:11;;;;;;;5.70;2.15;;;;;;;23.49;62.84;100311.28;5051009;28;20067;-67
2023/08/09 12:31:37;;;;;;;4.38;1.50;;;;;;;23.62;62.54;100310.09;5061942;28;20025;-67
2023/08/09 12:34:03;;;;;;;3.10;1.67;;;;;;;23.89;60.66;100305.44;5063034;28;20484;-67
2023/08/09 12:36:32;;;;;;;3.80;1.30;;;;;;;24.08;60.97;100303.94;5060993;28;20016;-67
2023/08/09 12:38:57;;;;;;;18.60;3.88;;;;;;;24.42;61.71;100308.28;5061893;28;20575;-67
2023/08/09 12:41:23;;;;;;;2.97;1.13;;;;;;;24.66;57.22;100306.78;5062272;28;20111;-68
2023/08/09 12:43:49;;;;;;;1.85;1.00;;;;;;;24.35;54.50;100319.41;5064447;28;20029;-68
2023/08/09 12:46:14;;;;;;;3.22;1.60;;;;;;;24.42;55.46;100316.44;5064794;28;20300;-67
2023/08/09 12:48:40;;;;;;;2.38;1.25;;;;;;;24.50;54.93;100316.75;5066704;28;20033;-67
2023/08/09 12:51:05;;;;;;;2.15;1.00;;;;;;;24.35;56.03;100317.50;5064706;28;20036;-68
2023/08/09 12:53:31;;;;;;;5.47;1.40;;;;;;;24.12;54.61;100323.28;5066409;28;20028;-68
2023/08/09 12:55:56;;;;;;;2.00;1.20;;;;;;;24.14;54.82;100312.16;5075212;28;20071;-67
2023/08/09 12:58:22;;;;;;;3.78;1.20;;;;;;;24.22;55.82;100315.19;5075041;28;20123;-67
2023/08/09 13:00:47;;;;;;;3.22;1.30;;;;;;;23.91;57.06;100313.31;5067950;28;20048;-67
2023/08/09 13:03:13;;;;;;;2.10;1.40;;;;;;;24.16;56.65;100312.69;5072254;28;20044;-67
2023/08/09 13:05:38;;;;;;;2.35;1.30;;;;;;;24.24;57.58;100320.38;5075057;28;20115;-67
2023/08/09 13:08:04;;;;;;;3.42;1.40;;;;;;;24.13;56.81;100314.06;5075010;28;20549;-67
2023/08/09 13:10:29;;;;;;;2.50;1.50;;;;;;;24.23;58.12;100311.38;5074969;28;20060;-67
2023/08/09 13:12:55;;;;;;;2.55;1.08;;;;;;;23.97;57.74;100320.44;5075016;28;20452;-67
2023/08/09 13:15:20;;;;;;;1.90;1.23;;;;;;;24.03;57.92;100317.50;5074849;28;20060;-67
2023/08/09 13:17:46;;;;;;;1.60;1.17;;;;;;;24.08;58.86;100314.81;5074884;28;20037;-67
2023/08/09 13:20:12;;;;;;;1.83;1.20;;;;;;;24.02;59.08;100315.88;5074531;28;20402;-67
2023/08/09 13:22:42;;;;;;;3.55;1.40;;;;;;;24.10;57.65;100323.53;5074918;28;20033;-67
2023/08/09 13:25:08;;;;;;;1.63;1.20;;;;;;;24.23;58.71;100311.38;5074675;28;20036;-67
2023/08/09 13:27:36;;;;;;;2.42;1.10;;;;;;;24.41;59.11;100317.53;5074743;28;20081;-68
2023/08/09 13:30:06;;;;;;;1.67;1.17;;;;;;;24.64;58.84;100315.19;5074337;28;20032;-67
2023/08/09 13:32:32;;;;;;;1.58;1.00;;;;;;;25.32;54.13;100311.69;5074615;28;20048;-67
2023/08/09 13:34:59;;;;;;;2.17;1.17;;;;;;;25.65;55.35;100318.56;5074737;28;20119;-68
2023/08/09 13:37:24;;;;;;;2.80;1.30;;;;;;;25.86;52.93;100322.13;5074644;28;20108;-67
2023/08/09 13:39:50;;;;;;;2.25;1.40;;;;;;;25.90;54.09;100318.59;5074221;28;20403;-67
2023/08/09 13:42:16;;;;;;;2.05;1.17;;;;;;;25.84;55.61;100325.16;5074547;28;20439;-67
2023/08/09 13:44:41;;;;;;;1.73;1.20;;;;;;;25.64;55.20;100320.47;5074583;28;20407;-67
2023/08/09 13:47:07;;;;;;;1.67;1.20;;;;;;;25.46;55.67;100320.16;5074353;28;20033;-67
2023/08/09 13:49:32;;;;;;;1.85;1.38;;;;;;;25.36;55.82;100315.50;5074204;28;20678;-68
2023/08/09 13:51:58;;;;;;;1.35;1.00;;;;;;;25.48;55.96;100313.34;5074223;28;20071;-67
2023/08/09 13:54:23;;;;;;;1.70;1.35;;;;;;;25.04;57.44;100316.50;5073666;28;20037;-67
2023/08/09 13:56:48;;;;;;;2.67;1.20;;;;;;;24.98;57.71;100317.56;5074097;28;20040;-67
2023/08/09 13:59:14;;;;;;;1.42;1.27;;;;;;;24.84;58.96;100311.78;5073914;28;20037;-67
2023/08/09 14:01:40;;;;;;;3.30;1.50;;;;;;;24.78;58.46;100312.03;5074275;28;20426;-68
2023/08/09 14:04:05;;;;;;;2.50;1.38;;;;;;;24.87;56.53;100321.31;5073990;28;20044;-67
2023/08/09 14:06:31;;;;;;;3.85;1.60;;;;;;;24.51;58.26;100329.28;5073652;28;20046;-67
2023/08/09 14:08:56;;;;;;;2.33;1.30;;;;;;;24.72;59.80;100323.97;5073637;28;20044;-67
2023/08/09 14:11:22;;;;;;;2.78;1.40;;;;;;;24.84;59.40;100319.94;5073832;28;20045;-66
2023/08/09 14:13:47;;;;;;;2.72;1.40;;;;;;;24.80;60.70;100321.56;5073777;28;20045;-66
2023/08/09 14:16:13;;;;;;;2.28;1.40;;;;;;;24.53;57.81;100326.31;5073772;28;20482;-67
2023/08/09 14:18:39;;;;;;;1.98;1.33;;;;;;;24.39;58.08;100316.94;5073459;28;20067;-67
2023/08/09 14:21:04;;;;;;;1.63;1.20;;;;;;;24.56;61.64;100321.16;5073314;28;20055;-67
2023/08/09 14:23:30;;;;;;;2.40;1.25;;;;;;;24.35;59.27;100303.88;5073386;28;20130;-67
2023/08/09 14:25:55;;;;;;;2.97;1.40;;;;;;;24.31;60.26;100316.34;5073440;28;20044;-68
2023/08/09 14:28:21;;;;;;;2.42;1.50;;;;;;;24.42;60.60;100309.09;5073348;28;20040;-67
2023/08/09 14:30:48;;;;;;;1.13;1.00;;;;;;;24.52;59.72;100320.06;5073482;28;20592;-67
2023/08/09 14:33:14;;;;;;;2.53;1.30;;;;;;;24.49;57.91;100325.19;5073499;28;20040;-66
2023/08/09 14:35:40;;;;;;;1.35;1.10;;;;;;;24.59;58.85;100315.19;5073385;28;20089;-65
2023/08/09 14:38:05;;;;;;;2.65;1.13;;;;;;;24.72;58.99;100319.34;5073102;28;20059;-66
2023/08/09 14:40:31;;;;;;;1.90;1.10;;;;;;;24.74;57.42;100309.00;5073224;28;20457;-66
2023/08/09 14:42:57;;;;;;;1.30;1.00;;;;;;;24.68;56.29;100320.13;5073231;28;20046;-66
2023/08/09 14:45:22;;;;;;;3.63;1.58;;;;;;;24.57;56.48;100321.97;5073103;28;20123;-66
2023/08/09 14:47:48;;;;;;;1.50;1.10;;;;;;;24.51;59.73;100326.56;5073013;28;20048;-66
2023/08/09 14:50:13;;;;;;;1.30;1.10;;;;;;;24.29;56.89;100318.50;5072925;28;20078;-66
2023/08/09 14:52:39;;;;;;;1.30;1.20;;;;;;;24.30;57.97;100319.31;5072957;28;20396;-66
2023/08/09 14:55:05;;;;;;;2.22;1.25;;;;;;;24.50;58.74;100327.66;5072918;28;20479;-67
2023/08/09 14:57:31;;;;;;;2.53;1.20;;;;;;;24.59;60.51;100322.53;5072785;28;20037;-67
2023/08/09 14:59:56;;;;;;;3.25;1.40;;;;;;;24.67;58.78;100315.78;5072619;28;20037;-67
2023/08/09 15:02:22;;;;;;;2.50;1.25;;;;;;;24.61;59.55;100317.66;5072919;28;20460;-66
2023/08/09 15:04:47;;;;;;;3.22;1.10;;;;;;;24.46;57.21;100321.09;5072270;28;20075;-67
2023/08/09 15:07:16;;;;;;;1.88;1.10;;;;;;;24.33;59.37;100318.81;5072444;28;20130;-66
2023/08/09 15:09:41;;;;;;;1.50;1.10;;;;;;;24.08;59.11;100325.72;5072485;28;20512;-67
2023/08/09 15:12:07;;;;;;;1.45;0.77;;;;;;;24.04;60.01;100323.75;5072852;28;20060;-67
2023/08/09 15:14:33;;;;;;;1.70;1.20;;;;;;;23.93;61.10;100322.88;5072935;28;20040;-66
2023/08/09 15:17:00;;;;;;;1.37;0.97;;;;;;;23.69;59.60;100327.81;5072590;28;20475;-67
2023/08/09 15:19:27;;;;;;;1.92;1.00;;;;;;;23.49;57.88;100322.97;5072402;28;20044;-67
2023/08/09 15:21:52;;;;;;;1.08;0.88;;;;;;;23.32;60.43;100318.72;5072484;28;20025;-66
2023/08/09 15:24:18;;;;;;;1.63;1.00;;;;;;;23.31;59.04;100322.50;5072426;28;20572;-67
2023/08/09 15:26:43;;;;;;;1.63;1.20;;;;;;;23.20;58.54;100311.50;5072422;28;20153;-67
2023/08/09 15:29:08;;;;;;;2.28;1.35;;;;;;;23.24;59.06;100311.84;5072431;28;20040;-67
2023/08/09 15:31:34;;;;;;;2.03;1.10;;;;;;;23.44;59.71;100303.91;5072498;28;20037;-67
2023/08/09 15:34:01;;;;;;;0.95;0.90;;;;;;;23.59;58.11;100318.72;5072610;28;20050;-66
2023/08/09 15:36:27;;;;;;;1.05;0.93;;;;;;;23.60;59.08;100320.34;5072388;28;20043;-66
2023/08/09 15:38:53;;;;;;;1.70;0.95;;;;;;;23.55;58.66;100312.97;5072275;28;20111;-67
2023/08/09 15:41:18;;;;;;;3.45;1.10;;;;;;;23.47;61.20;100327.88;5072510;28;20032;-66
2023/08/09 15:43:44;;;;;;;1.33;0.98;;;;;;;23.53;60.64;100323.28;5072285;28;20043;-67